Time;durP1;ratioP1;P1;durP2;ratioP2;P2;SDS_P1;SDS_P2;PMS_P1;PMS_P2;Temp;Humidity;BMP_temperature;BMP_pressure;BME280_temperature;BME280_humidity;BME280_pressure;Samples;Min_cycle;Max_cycle;Signal;HPM_P1;HPM_P2
2022/07/13 00:00:03;;;;;;;5.40;3.43;;;16.40;85.10;;;;;;5114376;28;20438;-64
2022/07/13 00:02:30;;;;;;;7.87;6.27;;;16.40;84.80;;;;;;5114774;28;20478;-65
2022/07/13 00:04:57;;;;;;;8.20;5.60;;;16.40;84.80;;;;;;5114328;28;20572;-65
2022/07/13 00:07:26;;;;;;;4.83;3.70;;;16.40;85.00;;;;;;5114930;28;20430;-65
2022/07/13 00:09:53;;;;;;;7.50;4.00;;;16.40;84.60;;;;;;5114262;28;20842;-66
2022/07/13 00:12:21;;;;;;;4.10;3.50;;;16.40;84.70;;;;;;5114615;28;20438;-65
2022/07/13 00:14:48;;;;;;;4.40;3.30;;;16.40;84.70;;;;;;5114270;28;20438;-66
2022/07/13 00:17:15;;;;;;;4.37;3.10;;;16.40;84.60;;;;;;5114923;28;20487;-65
2022/07/13 00:19:42;;;;;;;4.97;3.43;;;16.40;84.30;;;;;;5114323;28;20801;-65
2022/07/13 00:22:10;;;;;;;4.07;3.10;;;16.40;84.30;;;;;;5114787;28;20447;-65
2022/07/13 00:24:38;;;;;;;4.30;1.80;;;16.30;84.10;;;;;;5113725;28;20796;-65
2022/07/13 00:27:05;;;;;;;2.57;1.67;;;16.30;85.30;;;;;;5114143;28;20487;-64
2022/07/13 00:29:33;;;;;;;3.30;1.67;;;16.30;85.30;;;;;;5113889;28;20470;-65
2022/07/13 00:32:00;;;;;;;3.90;1.97;;;16.10;85.60;;;;;;5114437;28;20967;-65
2022/07/13 00:34:27;;;;;;;3.27;2.17;;;16.10;86.30;;;;;;5113711;28;20944;-64
2022/07/13 00:36:55;;;;;;;3.73;2.50;;;16.10;86.50;;;;;;5114196;28;20857;-65
2022/07/13 00:39:23;;;;;;;3.30;2.50;;;16.10;86.40;;;;;;5113698;28;20483;-65
2022/07/13 00:41:52;;;;;;;4.00;2.53;;;16.00;86.90;;;;;;5114362;28;20445;-65
2022/07/13 00:44:19;;;;;;;3.00;2.20;;;16.00;87.10;;;;;;5113875;28;20752;-65
2022/07/13 00:46:53;;;;;;;4.27;2.07;;;16.00;87.30;;;;;;5113024;28;20546;-66
2022/07/13 00:49:21;;;;;;;4.37;1.87;;;16.00;87.10;;;;;;5113830;28;20835;-66
2022/07/13 00:51:49;;;;;;;2.43;1.83;;;16.00;87.40;;;;;;5114010;28;20449;-65
2022/07/13 00:54:19;;;;;;;3.77;3.07;;;16.00;87.50;;;;;;5113152;28;20461;-64
2022/07/13 00:56:47;;;;;;;3.63;2.57;;;15.90;87.50;;;;;;5113858;28;20446;-65
2022/07/13 00:59:15;;;;;;;4.23;2.87;;;15.80;87.10;;;;;;5113721;28;20460;-65
2022/07/13 01:01:42;;;;;;;3.10;2.20;;;15.80;87.40;;;;;;5113502;28;20475;-65
2022/07/13 01:04:11;;;;;;;3.63;2.60;;;15.80;87.20;;;;;;5113718;28;20462;-64
2022/07/13 01:06:39;;;;;;;3.53;2.27;;;15.80;87.40;;;;;;5113452;28;20543;-65
2022/07/13 01:09:11;;;;;;;3.60;2.03;;;15.80;87.90;;;;;;5113535;28;20442;-65
2022/07/13 01:11:41;;;;;;;3.07;1.80;;;15.80;88.20;;;;;;5113305;28;20465;-65
2022/07/13 01:14:11;;;;;;;3.53;2.20;;;15.70;87.90;;;;;;5113114;28;20486;-65
2022/07/13 01:16:40;;;;;;;4.07;2.43;;;15.70;88.10;;;;;;5113404;28;20848;-65
2022/07/13 01:19:10;;;;;;;3.13;2.43;;;15.70;87.80;;;;;;5113625;28;20443;-65
2022/07/13 01:21:41;;;;;;;3.00;1.97;;;15.70;87.60;;;;;;5113270;28;20438;-67
2022/07/13 01:24:11;;;;;;;3.23;1.83;;;15.70;87.30;;;;;;5097908;28;20434;-65
2022/07/13 01:26:39;;;;;;;3.60;1.47;;;15.70;87.30;;;;;;5112674;28;20481;-65
2022/07/13 01:29:09;;;;;;;2.90;2.00;;;15.70;87.40;;;;;;5113028;28;20496;-65
2022/07/13 01:31:37;;;;;;;3.13;1.97;;;15.70;87.30;;;;;;5113196;28;20437;-65
2022/07/13 01:34:06;;;;;;;3.97;1.87;;;15.70;87.00;;;;;;5112545;28;20439;-64
2022/07/13 01:36:34;;;;;;;3.93;2.53;;;15.60;88.10;;;;;;5113322;28;20442;-65
2022/07/13 01:39:04;;;;;;;3.07;2.20;;;15.50;88.20;;;;;;5112631;28;20465;-65
2022/07/13 01:41:33;;;;;;;3.27;2.30;;;15.40;88.20;;;;;;5112977;28;20448;-65
2022/07/13 01:44:01;;;;;;;3.00;2.10;;;15.40;88.40;;;;;;5112322;28;20439;-65
2022/07/13 01:46:30;;;;;;;3.80;2.50;;;15.30;88.60;;;;;;5113131;28;20551;-65
2022/07/13 01:48:58;;;;;;;3.30;2.70;;;15.30;89.30;;;;;;5112528;28;20430;-66
2022/07/13 01:51:26;;;;;;;4.67;2.13;;;15.30;89.60;;;;;;5113215;28;20500;-65
2022/07/13 01:53:54;;;;;;;3.90;2.07;;;15.30;90.00;;;;;;5111680;28;20920;-65
2022/07/13 01:56:21;;;;;;;4.07;2.13;;;15.30;89.90;;;;;;5112821;28;20484;-66
2022/07/13 01:58:50;;;;;;;3.00;1.90;;;15.40;89.60;;;;;;5111938;28;20466;-65
2022/07/13 02:01:18;;;;;;;3.10;2.17;;;15.30;88.90;;;;;;5112890;28;20726;-65
2022/07/13 02:03:45;;;;;;;2.90;2.30;;;15.20;89.60;;;;;;5112475;28;20493;-65
2022/07/13 02:06:13;;;;;;;4.10;2.53;;;15.20;89.60;;;;;;5112380;28;20923;-65
2022/07/13 02:08:40;;;;;;;3.87;2.40;;;15.20;89.30;;;;;;5112516;28;20997;-65
2022/07/13 02:11:08;;;;;;;2.70;2.00;;;15.20;89.20;;;;;;5112544;28;20446;-65
2022/07/13 02:13:35;;;;;;;2.87;2.20;;;15.10;89.90;;;;;;5112175;28;20953;-66
2022/07/13 02:16:04;;;;;;;3.80;2.00;;;15.00;90.10;;;;;;5112721;28;20478;-71
2022/07/13 02:18:32;;;;;;;2.67;1.97;;;14.90;90.50;;;;;;5092319;28;20489;-65
2022/07/13 02:20:59;;;;;;;3.20;1.80;;;14.90;90.40;;;;;;5092345;28;20471;-65
2022/07/13 02:23:27;;;;;;;3.17;1.97;;;14.80;90.40;;;;;;5110971;28;20448;-65
2022/07/13 02:25:54;;;;;;;3.13;2.10;;;14.80;90.40;;;;;;5112629;28;20495;-65
2022/07/13 02:28:22;;;;;;;4.70;2.43;;;14.80;90.30;;;;;;5111960;28;20437;-65
2022/07/13 02:30:49;;;;;;;4.47;3.63;;;14.90;90.00;;;;;;5111986;28;20433;-65
2022/07/13 02:33:18;;;;;;;5.93;4.10;;;14.70;90.10;;;;;;5112305;28;20433;-65
2022/07/13 02:35:45;;;;;;;6.00;3.70;;;14.70;90.40;;;;;;5111717;28;20473;-65
2022/07/13 02:38:15;;;;;;;5.93;4.40;;;14.70;90.40;;;;;;5112675;28;20477;-66
2022/07/13 02:40:43;;;;;;;4.77;3.20;;;14.70;90.30;;;;;;5111908;28;20525;-65
2022/07/13 02:43:10;;;;;;;3.53;2.77;;;14.70;90.40;;;;;;5112596;28;20426;-65
2022/07/13 02:45:38;;;;;;;3.63;2.33;;;14.60;90.30;;;;;;5112087;28;20970;-65
2022/07/13 02:48:06;;;;;;;5.83;2.70;;;14.50;91.00;;;;;;5112457;28;20437;-65
2022/07/13 02:50:34;;;;;;;4.90;2.77;;;14.40;91.40;;;;;;5111965;28;20446;-66
2022/07/13 02:53:02;;;;;;;3.23;2.23;;;14.40;91.40;;;;;;5091989;28;20466;-65
2022/07/13 02:55:29;;;;;;;3.40;2.47;;;14.40;91.50;;;;;;5100829;28;20445;-66
2022/07/13 02:57:57;;;;;;;3.23;2.20;;;14.30;91.80;;;;;;5112342;28;20446;-65
2022/07/13 03:00:26;;;;;;;2.80;2.00;;;14.40;92.10;;;;;;5111826;28;20430;-72
2022/07/13 03:02:53;;;;;;;9.60;2.60;;;14.40;92.10;;;;;;5111660;28;20476;-65
2022/07/13 03:05:23;;;;;;;5.63;3.20;;;14.40;92.20;;;;;;5111557;28;20433;-65
2022/07/13 03:07:52;;;;;;;7.27;3.30;;;14.40;92.30;;;;;;5112213;28;20847;-65
2022/07/13 03:10:20;;;;;;;4.10;2.87;;;14.30;92.40;;;;;;5113552;28;20430;-66
2022/07/13 03:12:47;;;;;;;3.50;2.53;;;14.40;92.50;;;;;;5115599;28;20469;-65
2022/07/13 03:15:14;;;;;;;3.93;2.47;;;14.40;92.60;;;;;;5115384;28;20474;-65
2022/07/13 03:17:42;;;;;;;3.93;2.50;;;14.40;92.30;;;;;;5115819;28;20995;-65
2022/07/13 03:20:11;;;;;;;5.63;2.57;;;14.40;92.30;;;;;;5115231;28;20509;-65
2022/07/13 03:22:38;;;;;;;6.13;2.83;;;14.40;92.50;;;;;;5115178;28;20537;-66
2022/07/13 03:25:09;;;;;;;3.70;2.67;;;14.40;92.40;;;;;;5115255;28;20434;-65
2022/07/13 03:27:41;;;;;;;4.00;2.43;;;14.40;92.40;;;;;;5115603;28;20441;-65
2022/07/13 03:30:10;;;;;;;4.33;2.43;;;14.40;92.20;;;;;;5115271;28;20446;-64
2022/07/13 03:32:39;;;;;;;3.53;2.30;;;14.40;92.30;;;;;;5115210;28;20462;-65
2022/07/13 03:35:07;;;;;;;3.30;2.47;;;14.50;92.50;;;;;;5114986;28;20473;-65
2022/07/13 03:37:36;;;;;;;6.00;3.20;;;14.40;92.60;;;;;;5115254;28;20526;-65
2022/07/13 03:40:04;;;;;;;4.57;2.43;;;14.30;92.90;;;;;;5115025;28;20438;-65
2022/07/13 03:42:34;;;;;;;4.43;2.30;;;14.20;93.10;;;;;;5115030;28;20525;-65
2022/07/13 03:45:01;;;;;;;3.80;2.53;;;14.20;93.10;;;;;;5114839;28;20932;-65
2022/07/13 03:47:29;;;;;;;4.17;2.63;;;14.20;93.10;;;;;;5115281;28;20859;-65
2022/07/13 03:49:56;;;;;;;4.37;2.03;;;14.30;93.00;;;;;;5114775;28;21002;-65
2022/07/13 03:52:24;;;;;;;3.80;2.47;;;14.30;93.00;;;;;;5114588;28;20937;-66
2022/07/13 03:54:51;;;;;;;3.37;2.33;;;14.30;93.00;;;;;;5114413;28;20470;-65
2022/07/13 03:57:19;;;;;;;4.50;2.20;;;14.40;93.10;;;;;;5114972;28;20481;-66
2022/07/13 03:59:48;;;;;;;3.80;2.30;;;14.40;93.10;;;;;;5114628;28;20442;-65
2022/07/13 04:02:16;;;;;;;3.47;2.80;;;14.40;93.00;;;;;;5114548;28;20858;-65
2022/07/13 04:04:44;;;;;;;5.20;3.50;;;14.40;92.70;;;;;;5114950;28;20441;-65
2022/07/13 04:07:11;;;;;;;3.73;2.97;;;14.30;92.80;;;;;;5115029;28;20451;-66
2022/07/13 04:09:41;;;;;;;4.33;2.57;;;14.30;92.90;;;;;;5114712;28;20826;-65
2022/07/13 04:12:08;;;;;;;4.03;2.87;;;14.40;92.90;;;;;;5114912;28;20521;-65
2022/07/13 04:14:36;;;;;;;4.03;2.93;;;14.40;92.90;;;;;;5114168;28;20830;-65
2022/07/13 04:17:05;;;;;;;4.23;2.80;;;14.30;93.00;;;;;;5114744;28;20482;-64
2022/07/13 04:19:32;;;;;;;6.63;4.27;;;14.20;93.10;;;;;;5114094;28;20438;-65
2022/07/13 04:22:00;;;;;;;7.33;5.23;;;14.20;93.60;;;;;;5114624;28;20521;-65
2022/07/13 04:24:27;;;;;;;8.00;5.80;;;14.20;93.80;;;;;;5114060;28;20442;-65
2022/07/13 04:26:56;;;;;;;6.73;4.97;;;14.20;93.90;;;;;;5114548;28;20434;-65
2022/07/13 04:29:25;;;;;;;9.00;5.47;;;14.30;94.10;;;;;;5114468;28;20454;-65
2022/07/13 04:31:54;;;;;;;6.67;3.90;;;14.40;94.00;;;;;;5114306;28;20857;-65
2022/07/13 04:34:23;;;;;;;5.60;4.10;;;14.40;93.80;;;;;;5114428;28;20435;-66
2022/07/13 04:36:51;;;;;;;6.50;4.47;;;14.40;94.10;;;;;;5114560;28;20478;-65
2022/07/13 04:39:19;;;;;;;5.20;4.00;;;14.40;94.50;;;;;;5113899;28;20439;-65
2022/07/13 04:41:48;;;;;;;6.43;4.47;;;14.40;94.70;;;;;;5114113;28;20949;-65
2022/07/13 04:44:19;;;;;;;6.20;4.30;;;14.40;94.80;;;;;;5114116;28;20438;-66
2022/07/13 04:46:47;;;;;;;4.80;3.60;;;14.40;94.80;;;;;;5114000;28;20430;-65
2022/07/13 04:49:19;;;;;;;4.97;3.37;;;14.50;95.10;;;;;;5114297;28;20533;-65
2022/07/13 04:51:48;;;;;;;5.50;3.37;;;14.60;95.10;;;;;;5113626;28;20438;-65
2022/07/13 04:54:17;;;;;;;5.80;3.57;;;14.60;95.30;;;;;;5110958;28;20450;-65
2022/07/13 04:56:44;;;;;;;6.57;4.20;;;14.70;95.60;;;;;;5111849;28;20824;-65
2022/07/13 04:59:12;;;;;;;4.47;3.77;;;14.80;96.10;;;;;;5112027;28;20430;-66
2022/07/13 05:01:42;;;;;;;5.37;2.93;;;14.90;96.00;;;;;;5108185;28;20438;-65
2022/07/13 05:04:11;;;;;;;4.10;3.07;;;15.00;96.00;;;;;;5112436;28;20465;-65
2022/07/13 05:06:41;;;;;;;3.33;2.43;;;15.10;96.10;;;;;;5111330;28;20474;-65
2022/07/13 05:09:10;;;;;;;4.33;3.50;;;15.20;96.30;;;;;;5112072;28;20446;-65
2022/07/13 05:11:39;;;;;;;5.07;3.90;;;15.20;96.80;;;;;;5112054;28;20453;-65
2022/07/13 05:14:07;;;;;;;5.50;3.60;;;15.30;96.70;;;;;;5112194;28;21009;-65
2022/07/13 05:16:34;;;;;;;5.23;3.73;;;15.40;95.60;;;;;;5111037;28;20481;-66
2022/07/13 05:19:03;;;;;;;4.00;2.50;;;15.50;95.30;;;;;;5111671;28;20513;-65
2022/07/13 05:21:30;;;;;;;6.30;2.83;;;15.60;94.80;;;;;;5111950;28;20991;-65
2022/07/13 05:23:58;;;;;;;4.20;2.73;;;15.80;94.90;;;;;;5111659;28;20449;-67
2022/07/13 05:26:26;;;;;;;3.77;2.70;;;15.90;94.70;;;;;;5106694;28;20487;-65
2022/07/13 05:28:54;;;;;;;9.73;2.50;;;16.00;94.90;;;;;;5112563;27;20497;-65
2022/07/13 05:31:21;;;;;;;4.30;2.60;;;16.10;94.70;;;;;;5111451;28;20490;-65
2022/07/13 05:33:48;;;;;;;3.20;2.00;;;16.20;94.30;;;;;;5110762;28;20436;-65
2022/07/13 05:36:17;;;;;;;2.60;2.10;;;16.40;94.40;;;;;;5111265;28;20954;-66
2022/07/13 05:38:44;;;;;;;3.13;2.13;;;16.50;94.60;;;;;;5111779;28;20489;-65
2022/07/13 05:41:16;;;;;;;3.27;2.47;;;16.60;94.80;;;;;;5112079;28;20430;-65
2022/07/13 05:43:45;;;;;;;4.63;2.40;;;16.70;95.20;;;;;;5111595;28;20438;-65
2022/07/13 05:46:14;;;;;;;3.80;2.37;;;16.80;95.30;;;;;;5111974;28;20445;-66
2022/07/13 05:48:43;;;;;;;3.17;2.20;;;16.90;93.90;;;;;;5111880;28;20491;-65
2022/07/13 05:51:11;;;;;;;2.80;1.80;;;16.90;92.50;;;;;;5112127;28;20970;-65
2022/07/13 05:53:38;;;;;;;2.60;1.57;;;17.00;92.20;;;;;;5111054;28;20951;-65
2022/07/13 05:56:06;;;;;;;3.53;2.43;;;17.10;92.20;;;;;;5110674;28;21389;-65
2022/07/13 05:58:34;;;;;;;3.60;2.20;;;17.20;92.20;;;;;;5110930;28;20482;-66
2022/07/13 06:01:03;;;;;;;4.03;2.23;;;17.30;91.80;;;;;;5106939;28;20449;-65
2022/07/13 06:03:30;;;;;;;3.83;2.03;;;17.40;91.80;;;;;;5110235;28;20462;-65
2022/07/13 06:06:02;;;;;;;3.20;2.50;;;17.50;91.90;;;;;;5110407;28;20933;-65
2022/07/13 06:08:30;;;;;;;2.93;2.07;;;17.60;92.50;;;;;;5107128;28;20516;-67
2022/07/13 06:11:01;;;;;;;6.20;2.40;;;17.70;93.60;;;;;;5110628;28;20525;-65
2022/07/13 06:13:31;;;;;;;3.50;2.40;;;17.80;94.40;;;;;;5111226;28;20444;-66
2022/07/13 06:15:59;;;;;;;4.73;2.30;;;18.00;94.70;;;;;;5105758;28;20525;-65
2022/07/13 06:18:28;;;;;;;3.53;2.40;;;18.00;94.50;;;;;;5109064;28;20634;-66
2022/07/13 06:20:55;;;;;;;2.90;2.30;;;18.10;94.80;;;;;;5109018;28;20828;-66
2022/07/13 06:23:25;;;;;;;3.10;2.37;;;18.30;94.40;;;;;;5109644;28;20438;-65
2022/07/13 06:25:53;;;;;;;6.93;2.47;;;18.30;93.90;;;;;;5110361;28;20452;-66
2022/07/13 06:28:23;;;;;;;5.20;2.77;;;18.40;93.60;;;;;;5110233;28;20431;-67
2022/07/13 06:30:50;;;;;;;3.90;2.60;;;18.50;94.00;;;;;;5110081;28;20826;-67
2022/07/13 06:33:18;;;;;;;3.97;2.10;;;18.60;93.70;;;;;;5109883;28;20495;-66
2022/07/13 06:35:47;;;;;;;4.07;1.80;;;18.70;93.10;;;;;;5108800;28;20457;-65
2022/07/13 06:38:15;;;;;;;11.33;2.40;;;18.80;92.90;;;;;;5109813;28;20477;-65
2022/07/13 06:40:42;;;;;;;3.90;2.10;;;18.90;92.70;;;;;;5112158;28;20473;-65
2022/07/13 06:43:09;;;;;;;3.83;2.23;;;19.00;93.00;;;;;;5113232;28;20461;-65
2022/07/13 06:45:36;;;;;;;3.10;1.73;;;19.10;92.40;;;;;;5115439;28;20476;-66
2022/07/13 06:48:04;;;;;;;3.70;2.30;;;19.10;92.50;;;;;;5117032;28;20473;-65
2022/07/13 06:50:31;;;;;;;3.40;2.10;;;19.20;92.30;;;;;;5117084;28;20474;-65
2022/07/13 06:53:00;;;;;;;6.20;2.40;;;19.30;92.00;;;;;;5117095;28;20484;-65
2022/07/13 06:55:27;;;;;;;4.60;1.80;;;19.40;91.40;;;;;;5116847;28;20446;-65
2022/07/13 06:57:56;;;;;;;3.90;2.10;;;19.50;91.50;;;;;;5116664;28;20477;-65
2022/07/13 07:00:23;;;;;;;2.87;2.10;;;19.60;91.90;;;;;;5116777;28;20507;-65
2022/07/13 07:02:51;;;;;;;4.33;1.83;;;19.70;91.30;;;;;;5116531;28;20458;-65
2022/07/13 07:05:18;;;;;;;5.10;2.50;;;19.80;91.50;;;;;;5116487;28;20984;-66
2022/07/13 07:07:45;;;;;;;6.07;2.40;;;20.00;92.20;;;;;;5116341;28;20470;-68
2022/07/13 07:10:13;;;;;;;4.40;1.57;;;20.00;92.10;;;;;;5113524;28;20529;-65
2022/07/13 07:12:42;;;;;;;3.30;1.80;;;20.10;91.40;;;;;;5111043;28;20513;-66
2022/07/13 07:15:10;;;;;;;3.00;2.03;;;20.20;90.80;;;;;;5114726;28;20517;-66
2022/07/13 07:17:45;;;;;;;4.17;2.87;;;20.40;90.90;;;;;;5115303;28;20581;-66
2022/07/13 07:20:12;;;;;;;10.13;2.63;;;20.40;88.90;;;;;;5111645;28;20524;-65
2022/07/13 07:22:45;;;;;;;4.70;2.00;;;20.50;89.50;;;;;;5115264;28;20438;-66
2022/07/13 07:25:14;;;;;;;3.07;1.60;;;20.60;90.40;;;;;;5111495;28;20790;-66
2022/07/13 07:27:42;;;;;;;8.20;2.53;;;20.80;89.30;;;;;;5115203;28;20527;-66
2022/07/13 07:30:10;;;;;;;4.90;1.93;;;20.90;88.80;;;;;;5114432;28;20535;-66
2022/07/13 07:32:38;;;;;;;7.20;3.17;;;21.00;88.80;;;;;;5115245;28;20462;-65
2022/07/13 07:35:06;;;;;;;4.53;2.20;;;21.20;89.60;;;;;;5115282;28;20489;-65
2022/07/13 07:37:33;;;;;;;5.47;2.30;;;21.30;90.20;;;;;;5114894;28;20511;-67
2022/07/13 07:40:05;;;;;;;3.80;2.80;;;21.40;89.20;;;;;;5114424;28;20447;-65
2022/07/13 07:42:35;;;;;;;5.23;2.60;;;21.60;88.30;;;;;;5114634;28;20503;-65
2022/07/13 07:45:02;;;;;;;3.20;2.17;;;21.70;86.70;;;;;;5114480;28;20481;-65
2022/07/13 07:47:29;;;;;;;2.60;1.60;;;21.80;85.60;;;;;;5114393;28;20530;-66
2022/07/13 07:49:56;;;;;;;3.97;1.60;;;21.90;83.70;;;;;;5114240;28;20475;-65
2022/07/13 07:52:23;;;;;;;2.47;1.60;;;22.00;85.00;;;;;;5114750;28;20520;-66
2022/07/13 07:54:50;;;;;;;3.47;2.03;;;22.10;84.70;;;;;;5111556;28;20532;-67
2022/07/13 07:57:17;;;;;;;4.53;2.27;;;22.20;83.30;;;;;;5115390;28;20942;-66
2022/07/13 07:59:45;;;;;;;3.63;1.70;;;22.30;82.40;;;;;;5115715;28;20528;-66
2022/07/13 08:02:12;;;;;;;4.67;2.40;;;22.40;82.20;;;;;;5115403;28;20543;-67
2022/07/13 08:04:39;;;;;;;4.33;1.67;;;22.50;77.70;;;;;;5115671;28;20773;-66
2022/07/13 08:07:08;;;;;;;2.90;1.60;;;22.60;77.30;;;;;;5115626;28;20537;-65
2022/07/13 08:09:35;;;;;;;4.30;2.00;;;22.70;73.90;;;;;;5115173;28;20477;-65
2022/07/13 08:12:04;;;;;;;5.43;1.70;;;22.80;73.20;;;;;;5115469;28;20446;-65
2022/07/13 08:14:31;;;;;;;8.87;1.90;;;22.90;74.80;;;;;;5115360;28;20438;-65
2022/07/13 08:17:00;;;;;;;2.93;1.70;;;23.00;78.30;;;;;;5115367;28;20946;-66
2022/07/13 08:19:27;;;;;;;3.80;1.50;;;23.20;74.20;;;;;;5115023;28;20894;-65
2022/07/13 08:21:54;;;;;;;3.27;1.80;;;23.30;73.00;;;;;;5115348;28;20451;-66
2022/07/13 08:24:26;;;;;;;3.37;1.97;;;23.30;73.60;;;;;;5114976;28;20435;-66
2022/07/13 08:26:54;;;;;;;4.00;1.83;;;23.50;72.60;;;;;;5115107;28;20533;-66
2022/07/13 08:29:21;;;;;;;3.20;2.27;;;23.60;72.80;;;;;;5115331;28;20449;-66
2022/07/13 08:31:50;;;;;;;4.13;1.53;;;23.70;74.50;;;;;;5114759;28;20430;-65
2022/07/13 08:39:58;;;;;;;3.17;1.77;;;24.20;72.60;;;;;;5114886;28;20813;-66
2022/07/13 08:42:25;;;;;;;6.30;2.20;;;24.20;69.70;;;;;;5114798;28;20518;-65
2022/07/13 08:44:54;;;;;;;2.80;1.80;;;24.30;70.60;;;;;;5114900;28;20495;-65
2022/07/13 08:47:24;;;;;;;3.63;2.90;;;24.50;71.20;;;;;;5114685;28;20969;-65
2022/07/13 08:49:55;;;;;;;6.20;2.00;;;24.60;70.50;;;;;;5114824;28;20853;-66
2022/07/13 08:52:22;;;;;;;2.50;1.37;;;24.70;68.20;;;;;;5114289;28;20477;-66
2022/07/13 08:54:49;;;;;;;2.70;1.70;;;24.80;68.70;;;;;;5114262;28;20529;-66
2022/07/13 08:57:19;;;;;;;8.10;1.83;;;24.90;62.70;;;;;;5114500;28;20473;-66
2022/07/13 08:59:49;;;;;;;5.60;3.73;;;25.00;62.70;;;;;;5114286;28;20980;-65
2022/07/13 09:02:17;;;;;;;7.03;3.90;;;25.20;64.60;;;;;;5113962;28;20523;-67
2022/07/13 09:04:45;;;;;;;3.60;1.40;;;25.30;66.40;;;;;;5114465;28;20438;-66
2022/07/13 09:07:13;;;;;;;4.40;1.07;;;25.70;65.50;;;;;;5113523;28;20935;-66
2022/07/13 09:09:41;;;;;;;1.97;1.00;;;26.20;57.50;;;;;;5113816;28;20442;-66
2022/07/13 09:12:15;;;;;;;6.30;1.27;;;26.70;58.70;;;;;;5114060;28;20495;-66
2022/07/13 09:14:43;;;;;;;2.00;0.93;;;27.30;55.90;;;;;;5113969;28;20437;-65
2022/07/13 09:17:30;;;;;;;2.33;1.10;;;27.80;52.40;;;;;;5114202;28;20940;-66
2022/07/13 09:19:58;;;;;;;2.00;0.93;;;28.00;50.30;;;;;;5113650;28;20430;-65
2022/07/13 09:22:27;;;;;;;4.97;1.10;;;28.30;47.50;;;;;;5114124;28;20478;-66
2022/07/13 09:24:54;;;;;;;2.70;1.37;;;28.50;47.70;;;;;;5113788;28;20982;-66
2022/07/13 09:27:27;;;;;;;2.30;1.10;;;28.80;47.80;;;;;;5113830;28;20509;-67
2022/07/13 09:29:54;;;;;;;2.47;0.80;;;29.00;46.10;;;;;;5114206;28;20438;-66
2022/07/13 09:32:21;;;;;;;1.90;0.97;;;29.20;47.60;;;;;;5114151;28;20789;-66
2022/07/13 09:34:57;;;;;;;2.00;0.90;;;29.40;49.10;;;;;;5113733;28;20477;-66
2022/07/13 09:37:27;;;;;;;1.87;0.87;;;29.60;46.00;;;;;;5113913;28;20444;-66
2022/07/13 09:40:05;;;;;;;2.33;1.57;;;29.70;46.40;;;;;;5113792;28;20943;-66
2022/07/13 09:42:34;;;;;;;3.37;2.83;;;29.80;45.00;;;;;;5113797;28;20499;-66
2022/07/13 09:47:52;;;;;;;1.93;1.07;;;30.10;46.60;;;;;;5113869;28;20768;-67
2022/07/13 09:50:20;;;;;;;2.17;1.20;;;30.30;47.70;;;;;;5113728;28;20473;-66
2022/07/13 09:52:49;;;;;;;2.47;0.90;;;30.40;47.50;;;;;;5113604;28;20513;-68
2022/07/13 09:55:22;;;;;;;3.23;1.00;;;30.50;47.80;;;;;;5113385;28;20831;-66
2022/07/13 09:57:52;;;;;;;2.90;0.80;;;30.50;48.70;;;;;;5113692;28;20473;-66
2022/07/13 10:00:21;;;;;;;2.53;1.07;;;30.50;48.80;;;;;;5113915;28;20442;-66
2022/07/13 10:02:49;;;;;;;2.10;1.17;;;30.60;47.70;;;;;;5113372;28;20883;-66
2022/07/13 10:05:18;;;;;;;2.53;1.00;;;30.70;46.80;;;;;;5113492;28;20478;-66
2022/07/13 10:07:47;;;;;;;2.80;1.10;;;31.00;45.20;;;;;;5113679;28;20470;-66
2022/07/13 10:10:16;;;;;;;1.90;0.90;;;31.30;47.00;;;;;;5113568;28;20455;-66
2022/07/13 10:12:44;;;;;;;1.97;0.90;;;31.60;45.50;;;;;;5113708;28;20529;-66
2022/07/13 10:15:13;;;;;;;2.30;1.00;;;31.70;40.30;;;;;;5113534;28;20517;-66
2022/07/13 10:17:42;;;;;;;4.00;0.90;;;32.00;38.20;;;;;;5113369;28;20435;-66
2022/07/13 10:20:12;;;;;;;1.90;0.80;;;32.10;34.20;;;;;;5117047;28;20438;-66
2022/07/13 10:22:43;;;;;;;1.70;0.77;;;32.20;34.30;;;;;;5117694;28;20446;-66
2022/07/13 10:25:10;;;;;;;2.03;0.87;;;32.40;34.30;;;;;;5117797;28;20433;-66
2022/07/13 10:27:41;;;;;;;1.80;0.77;;;32.60;31.10;;;;;;5117332;28;20472;-66
2022/07/13 10:30:10;;;;;;;1.70;0.70;;;32.80;30.40;;;;;;5117652;28;20483;-66
2022/07/13 10:32:38;;;;;;;2.70;1.03;;;33.10;32.60;;;;;;5117576;28;20474;-66
2022/07/13 10:35:08;;;;;;;1.90;0.87;;;33.40;31.60;;;;;;5117508;28;20506;-66
2022/07/13 10:38:22;;;;;;;3.00;0.90;;;33.50;30.00;;;;;;5117000;28;20448;-67
2022/07/13 10:40:49;;;;;;;2.43;0.93;;;33.60;34.20;;;;;;5117248;28;20997;-66
2022/07/13 10:43:19;;;;;;;2.07;0.80;;;33.70;32.40;;;;;;5117135;28;20529;-67
2022/07/13 10:45:51;;;;;;;2.40;1.10;;;33.80;32.50;;;;;;5117278;28;20430;-66
2022/07/13 10:48:43;;;;;;;1.70;0.60;;;33.70;31.60;;;;;;5116642;28;20504;-67
2022/07/13 10:51:21;;;;;;;2.30;1.00;;;33.60;31.70;;;;;;5117067;28;20433;-65
2022/07/13 10:54:09;;;;;;;3.00;0.90;;;33.80;29.70;;;;;;5117119;28;20433;-66
2022/07/13 10:56:36;;;;;;;2.77;0.70;;;33.90;29.00;;;;;;5117083;28;20430;-66
2022/07/13 10:59:06;;;;;;;3.10;0.70;;;34.00;29.20;;;;;;5116677;28;20466;-66
2022/07/13 11:01:44;;;;;;;1.80;0.80;;;34.10;27.20;;;;;;5116980;28;20445;-66
2022/07/13 11:04:15;;;;;;;2.57;0.63;;;34.10;27.70;;;;;;5115941;28;20966;-66
2022/07/13 11:06:42;;;;;;;1.70;0.70;;;34.00;27.80;;;;;;5116725;28;20770;-67
2022/07/13 11:09:20;;;;;;;4.63;0.70;;;34.10;30.30;;;;;;5113509;28;20510;-66
2022/07/13 11:11:49;;;;;;;2.07;0.90;;;34.20;31.40;;;;;;5103716;28;20437;-66
2022/07/13 11:14:49;;;;;;;3.70;0.90;;;34.20;32.20;;;;;;5114962;28;20525;-66
2022/07/13 11:17:23;;;;;;;2.33;0.80;;;34.40;34.70;;;;;;5112940;28;20430;-67
2022/07/13 11:20:01;;;;;;;2.20;0.70;;;34.70;34.00;;;;;;5115719;28;20473;-67
2022/07/13 11:25:13;;;;;;;2.20;1.10;;;34.90;32.80;;;;;;5115406;28;20486;-67
2022/07/13 11:25:37;;;;;;;1.97;1.10;;;35.00;30.90;;;;;;5114697;28;20427;-66
2022/07/13 11:28:06;;;;;;;2.73;0.70;;;35.00;31.60;;;;;;5115358;28;20544;-66
2022/07/13 11:30:36;;;;;;;3.30;1.00;;;34.90;28.80;;;;;;5111676;28;20434;-67
2022/07/13 11:33:08;;;;;;;2.03;0.80;;;34.80;29.40;;;;;;5115619;27;20450;-69
2022/07/13 11:35:36;;;;;;;4.33;1.47;;;34.50;28.00;;;;;;5115399;28;20582;-66
2022/07/13 11:38:05;;;;;;;2.53;0.80;;;34.40;28.70;;;;;;5115791;28;20453;-66
2022/07/13 11:40:33;;;;;;;1.77;0.70;;;34.20;28.20;;;;;;5115996;28;20430;-66
2022/07/13 11:43:01;;;;;;;1.67;0.70;;;34.10;29.80;;;;;;5115738;28;20442;-66
2022/07/13 11:45:30;;;;;;;2.17;0.77;;;34.10;28.90;;;;;;5115873;28;20481;-66
2022/07/13 11:48:03;;;;;;;1.87;0.70;;;34.10;27.20;;;;;;5115843;28;20435;-66
2022/07/13 11:50:43;;;;;;;3.07;0.70;;;33.90;27.30;;;;;;5115579;28;20526;-66
2022/07/13 11:53:24;;;;;;;1.80;0.80;;;33.70;27.40;;;;;;5116010;28;20517;-66
2022/07/13 11:55:51;;;;;;;1.93;0.90;;;33.30;27.90;;;;;;5115586;28;20532;-66
2022/07/13 11:58:27;;;;;;;4.83;0.90;;;33.00;28.30;;;;;;5115862;28;20492;-66
2022/07/13 12:00:55;;;;;;;1.80;0.70;;;32.60;29.40;;;;;;5115945;28;20430;-66
2022/07/13 12:03:46;;;;;;;1.70;0.70;;;32.30;28.70;;;;;;5114900;28;21035;-66
2022/07/13 12:06:13;;;;;;;3.90;0.97;;;32.00;28.70;;;;;;5115722;28;20517;-66
2022/07/13 12:08:43;;;;;;;4.67;0.80;;;31.70;29.80;;;;;;5115583;28;20560;-66
2022/07/13 12:11:14;;;;;;;2.10;0.77;;;31.50;28.30;;;;;;5115172;28;20478;-66
2022/07/13 12:13:42;;;;;;;1.97;0.77;;;31.40;29.00;;;;;;5115533;28;20926;-65
2022/07/13 12:16:12;;;;;;;1.80;0.83;;;31.40;28.70;;;;;;5115220;28;20470;-66
2022/07/13 12:19:02;;;;;;;1.90;0.83;;;31.60;29.80;;;;;;5115502;28;20470;-66
2022/07/13 12:21:33;;;;;;;2.60;0.83;;;31.80;30.10;;;;;;5115509;28;20426;-66
2022/07/13 12:24:00;;;;;;;2.50;0.70;;;32.20;29.90;;;;;;5114864;28;20438;-66
2022/07/13 12:26:28;;;;;;;2.10;0.80;;;32.50;29.50;;;;;;5115217;28;20815;-66
2022/07/13 12:28:55;;;;;;;2.20;1.07;;;32.70;29.50;;;;;;5115023;28;20478;-66
2022/07/13 12:31:23;;;;;;;1.80;0.80;;;32.70;28.80;;;;;;5114909;28;20506;-66
2022/07/13 12:33:51;;;;;;;4.50;1.07;;;32.70;29.70;;;;;;5114695;28;20462;-66
2022/07/13 12:36:22;;;;;;;2.00;0.80;;;32.70;27.80;;;;;;5114844;28;20765;-66
2022/07/13 12:39:21;;;;;;;3.07;0.70;;;32.70;28.10;;;;;;5114846;28;20780;-66
2022/07/13 12:41:56;;;;;;;1.70;0.70;;;32.80;28.20;;;;;;5113834;28;20440;-66
2022/07/13 12:44:29;;;;;;;1.80;0.80;;;33.00;30.30;;;;;;5114932;28;20430;-66
2022/07/13 12:46:58;;;;;;;1.70;0.60;;;33.00;28.20;;;;;;5114844;28;20529;-66
2022/07/13 12:49:29;;;;;;;2.20;0.73;;;33.00;26.00;;;;;;5114323;28;20980;-66
2022/07/13 12:52:04;;;;;;;1.60;0.70;;;32.90;26.90;;;;;;5114507;28;20469;-66
2022/07/13 12:54:46;;;;;;;1.80;0.80;;;32.90;26.50;;;;;;5114343;28;20440;-65
2022/07/13 12:57:15;;;;;;;1.80;0.70;;;32.70;24.20;;;;;;5114764;28;20913;-66
2022/07/13 12:59:58;;;;;;;1.80;0.70;;;32.70;25.00;;;;;;5114064;28;20430;-66
2022/07/13 13:02:25;;;;;;;1.67;0.60;;;32.70;25.00;;;;;;5114031;28;20991;-66
2022/07/13 13:04:52;;;;;;;1.70;0.60;;;32.70;25.70;;;;;;5114549;28;20842;-65
2022/07/13 13:07:21;;;;;;;1.70;0.60;;;32.60;24.80;;;;;;5114325;28;20796;-66